St. LLORENÇ del MUNT i l'OBAC -La Mata (Bages)





Hora UTC 17:55
Temperatura 9.7 ºC
Humedad 86.8 %
Presión 1013.7 hPa
Pluja 0.0 mm
Velocidad viento 17.6 km/h
Dirección viento S
Radiación solar 71.6 W/m²
Fuel 17.7 %

Datos diarios 2024-04-16



Hora UTC (invierno +1h; verano +2h)
Temperatura (ºC) Humedad (%) Presión (hPa) Velocidad viento (km/h) Precipitación (mm) Fuel (%) Radiación solar (W/m²)
Hora UTC Aire Humedad Presión Vel. Dir. Vel. Max Dir. Intent. máx 5 min. Fuel Rad. Sol.
00:05 10.7 73.2 1018.4 4.4 NNE 4.4 NE 0.0 18.2 0.1
00:10 10.4 74.6 1018.3 3.5 N 7.8 N 0.0 18.2 0.1
00:15 10.2 76.4 1018.2 3.1 N 7.4 N 0.0 18.4 0.1
00:20 10.0 78.3 1018.3 4.2 N 7.4 N 0.0 18.7 0.1
00:25 9.8 80.1 1018.2 5.4 NNW 8.1 N 0.0 19.2 0.1
00:30 9.6 81.2 1018.2 5.1 N 8.8 N 0.0 19.5 0.1
00:35 9.4 82.0 1018.1 3.2 N 5.6 NE 0.0 19.7 0.1
00:40 9.2 83.3 1018.1 4.1 N 7.8 N 0.0 20.2 0.1
00:45 9.2 84.3 1018.0 3.2 N 6.0 N 0.0 20.7 0.1
00:50 9.1 85.1 1017.9 3.6 NNW 6.7 NNW 0.0 21.2 0.1
00:55 9.0 85.6 1017.9 2.7 NNW 6.4 WNW 0.0 21.7 0.1
01:00 8.9 86.0 1017.8 3.5 NW 7.4 NW 0.0 22.2 0.1
01:05 8.8 85.6 1017.7 2.9 NNW 7.4 N 0.0 22.8 0.1
01:10 8.7 85.7 1017.5 4.1 NNW 10.6 NNW 0.0 23.3 0.1
01:15 8.7 86.2 1017.5 3.6 NW 10.2 WNW 0.0 23.8 0.1
01:20 8.7 86.4 1017.5 0.7 N 3.5 WNW 0.0 24.3 0.1
01:25 8.5 86.7 1017.4 2.1 NNE 8.1 NE 0.0 24.5 0.1
01:30 8.4 87.4 1017.3 2.2 NNW 6.0 N 0.0 24.9 0.1
01:35 8.3 87.6 1017.2 5.6 NNE 10.2 0.0 25.3 0.1
01:40 8.1 87.9 1017.2 4.1 NNE 8.8 NE 0.0 25.9 0.1
01:45 7.9 88.2 1017.2 4.3 NNE 7.4 NE 0.0 26.3 0.1
01:50 7.6 88.1 1017.1 4.4 NNE 7.4 NNE 0.0 26.5 0.1
01:55 7.4 88.0 1017.1 5.5 N 9.9 N 0.0 26.8 0.1
02:00 7.3 86.8 1017.0 5.2 NNE 9.2 NNE 0.0 26.9 0.1
02:05 7.1 85.8 1017.0 4.6 N 9.5 NNW 0.0 27.1 0.1
02:10 7.0 84.3 1017.0 7.1 N 13.8 NNE 0.0 27.3 0.1
02:15 7.0 82.8 1017.0 5.0 N 8.8 N 0.0 27.3 0.1
02:20 7.0 81.9 1017.0 6.8 N 13.4 NNW 0.0 27.5 0.1
02:25 6.9 81.4 1016.9 4.4 NNE 9.2 NE 0.0 27.6 0.1
02:30 6.7 81.8 1016.8 5.8 N 10.2 NNW 0.0 27.6 0.1
02:35 6.8 80.9 1016.8 5.3 NNW 13.1 NNW 0.0 27.9 0.1
02:40 6.7 80.2 1016.8 7.1 NNW 16.2 NNW 0.0 28.0 0.1
02:45 6.7 79.3 1016.7 5.0 NNW 12.0 NNW 0.0 28.0 0.1
02:50 6.6 78.9 1016.7 8.4 NNW 16.6 NNW 0.0 28.0 0.1
02:55 6.6 78.0 1016.7 7.1 NNW 14.5 N 0.0 28.1 0.1
03:00 6.5 77.5 1016.7 5.1 NNW 14.1 NW 0.0 27.9 0.1
03:05 6.5 77.1 1016.6 6.3 NNW 11.3 N 0.0 27.9 0.1
03:10 6.4 76.6 1016.7 7.0 NNW 11.6 NNE 0.0 27.9 0.1
03:15 6.3 76.7 1016.7 6.6 NNW 12.7 NNW 0.0 27.9 0.1
03:20 6.2 76.7 1016.7 5.7 NNW 9.9 NW 0.0 28.0 0.1
03:25 6.1 76.9 1016.6 6.5 N 12.0 N 0.0 27.9 0.1
03:30 6.0 77.0 1016.6 6.9 N 16.6 NW 0.0 28.1 0.1
03:35 6.0 76.9 1016.6 7.9 NNW 16.2 N 0.0 28.1 0.1
03:40 5.9 77.1 1016.5 8.4 NNW 18.0 NNW 0.0 28.2 0.1
03:45 6.0 77.0 1016.5 8.1 NNW 15.2 N 0.0 28.3 0.1
03:50 5.9 77.1 1016.5 9.6 NNW 15.2 NNW 0.0 28.3 0.1
03:55 5.9 77.4 1016.5 9.1 NNW 16.9 NW 0.0 28.5 0.1
04:00 5.9 77.7 1016.4 8.3 NNW 18.7 NW 0.0 28.7 0.1
04:05 5.9 77.8 1016.4 7.2 NNW 12.0 NNW 0.0 28.9 0.1
04:10 5.9 77.9 1016.3 7.2 NW 12.4 NNW 0.0 28.9 0.1
04:15 6.0 77.9 1016.2 6.8 NW 11.6 NW 0.0 29.0 0.1
04:20 6.0 77.9 1016.1 5.6 NW 11.6 NNW 0.0 29.0 0.1
04:25 6.0 77.9 1016.1 9.7 NW 15.5 WNW 0.0 29.0 0.1
04:30 6.0 78.2 1016.1 10.6 NW 15.9 NW 0.0 29.0 0.1
04:35 6.0 78.3 1016.1 12.2 NW 17.6 WNW 0.0 29.0 0.1
04:40 5.9 78.5 1016.1 9.7 NNW 17.6 N 0.0 29.0 0.1
04:45 5.8 78.7 1016.1 9.0 NNW 18.7 WNW 0.0 29.0 0.1
04:50 5.8 78.9 1015.9 8.2 NW 14.8 WNW 0.0 29.0 0.1
04:55 5.8 79.0 1015.9 8.8 NW 14.1 NW 0.0 29.0 0.2
05:00 5.8 79.1 1015.9 8.6 NW 15.9 NNW 0.0 29.0 0.5
05:05 5.7 79.3 1016.1 8.3 NW 15.9 NW 0.0 29.1 1.0
05:10 5.6 79.7 1016.2 6.1 NNW 15.5 N 0.0 29.1 1.9
05:15 5.5 80.0 1016.1 8.0 NNW 16.9 NNW 0.0 29.1 3.3
05:20 5.3 80.7 1016.2 5.7 NNW 18.7 NW 0.0 29.2 4.8
05:25 5.3 81.2 1016.3 9.5 NNW 18.0 N 0.0 29.4 7.2
05:30 5.3 81.4 1016.2 7.9 NNW 19.1 NNW 0.0 29.4 10.4
05:35 5.3 81.5 1016.2 2.2 NNW 8.8 NNW 0.0 29.5 17.9
05:40 5.2 81.7 1016.2 3.3 NW 9.9 NW 0.0 29.7 28.2
05:45 5.2 81.9 1016.1 5.0 NNW 12.0 NNW 0.0 29.9 43.0
05:50 5.3 81.9 1016.1 5.1 NNW 12.7 NW 0.0 29.8 49.0
05:55 5.3 81.7 1016.0 6.4 NNW 12.4 NNW 0.0 29.8 41.7
06:00 5.3 81.6 1016.2 10.9 NNW 17.3 NNW 0.0 30.0 29.6
06:05 5.2 81.7 1016.0 5.9 NNW 12.0 NNW 0.0 30.2 38.7
06:10 5.2 81.9 1016.0 2.0 N 5.3 N 0.0 30.6 55.6
06:15 5.3 82.2 1015.9 5.7 NNW 9.2 NNW 0.0 31.0 63.2
06:20 5.5 81.8 1015.9 4.7 NNW 9.9 NNW 0.0 31.3 71.3
06:25 5.7 81.2 1016.1 8.7 N 14.5 NNW 0.0 31.4 65.0
06:30 5.7 80.8 1016.1 11.4 NNW 16.2 NNW 0.0 31.7 177.8
06:35 6.1 80.5 1016.1 12.4 N 19.4 NNW 0.0 32.4 232.8
06:40 6.3 79.3 1016.1 10.4 N 18.4 N 0.0 32.3 253.7
06:45 6.5 79.0 1016.1 8.6 NNW 13.1 NW 0.0 32.5 259.5
06:50 6.8 78.4 1016.1 9.7 N 17.3 NNE 0.0 32.8 290.2
06:55 6.9 77.6 1016.0 8.0 N 14.5 NNW 0.0 32.3 256.1
07:00 7.0 77.2 1016.0 4.9 N 10.6 SE 0.0 31.6 220.0
07:05 7.0 77.2 1015.9 4.3 N 9.5 NNW 0.0 31.7 236.3
07:10 7.2 77.2 1016.0 6.4 N 12.7 NW 0.0 32.1 328.5
07:15 7.5 76.6 1015.9 5.0 N 11.6 N 0.0 32.9 397.3
07:20 8.0 75.4 1015.8 4.7 N 12.4 N 0.0 33.0 383.1
07:25 7.9 75.3 1015.7 7.1 N 12.7 NNW 0.0 31.8 383.2
07:30 8.0 75.4 1015.8 6.1 N 13.4 N 0.0 31.9 412.8
07:35 8.2 74.7 1015.9 6.4 N 13.8 N 0.0 32.0 460.5
07:40 8.3 74.8 1015.9 6.3 N 13.8 NNE 0.0 30.9 360.7
07:45 8.4 74.3 1015.9 5.7 N 12.7 N 0.0 30.3 415.1
07:50 8.6 74.9 1015.9 4.8 N 10.9 NNE 0.0 31.6 575.1
07:55 9.1 72.7 1015.9 6.3 N 16.6 N 0.0 31.2 477.4
08:00 8.7 73.0 1016.0 7.0 N 12.4 N 0.0 28.8 324.2
08:05 8.7 73.5 1015.9 5.7 N 12.7 NW 0.0 28.3 334.0
08:10 8.6 73.7 1015.9 6.1 N 12.0 NNW 0.0 27.9 312.9
08:15 8.6 74.2 1016.0 5.2 N 10.9 N 0.0 27.9 340.8
08:20 8.6 73.7 1016.0 6.1 NNW 11.3 NNW 0.0 27.9 397.6
08:25 8.7 74.0 1016.1 5.6 NNW 13.4 NW 0.0 27.9 378.6
08:30 8.7 74.3 1016.1 4.9 NNW 11.3 NNW 0.0 27.7 440.9
08:35 8.9 74.0 1016.1 6.5 NNW 13.4 NNW 0.0 29.0 630.3
08:40 9.2 73.6 1016.1 6.9 NW 13.1 NNW 0.0 29.5 669.9
08:45 9.4 72.6 1016.2 7.2 NNW 12.0 NNW 0.0 29.0 519.4
08:50 9.5 72.8 1016.1 3.2 NW 8.8 NW 0.0 28.3 541.9
08:55 9.4 72.6 1016.0 5.2 NW 9.9 NNW 0.0 27.6 463.0
09:00 9.4 72.8 1016.1 7.1 NW 15.2 NNW 0.0 27.4 657.0
09:05 9.7 73.4 1016.1 4.4 NW 10.9 WNW 0.0 28.3 692.7
09:10 9.9 71.9 1016.1 7.2 WNW 12.0 WNW 0.0 28.1 689.7
09:15 9.9 72.3 1016.1 4.9 NW 9.2 NNW 0.0 27.9 699.5
09:20 10.2 71.6 1016.1 5.2 WNW 13.4 W 0.0 27.9 705.8
09:25 10.4 72.6 1016.0 4.0 NW 9.2 WSW 0.0 27.5 709.7
09:30 10.9 70.6 1016.1 3.5 NW 9.5 WNW 0.0 27.6 718.6
09:35 11.4 69.9 1016.1 4.2 W 12.4 WNW 0.0 27.1 728.7
09:40 11.4 68.8 1016.1 5.3 NW 12.7 WNW 0.0 26.3 738.0
09:45 11.9 68.9 1016.1 3.2 NNW 13.1 N 0.0 26.6 747.5
09:50 12.0 68.1 1016.1 4.2 N 12.0 NNW 0.0 26.0 757.4
09:55 11.9 68.1 1016.0 7.8 NNW 15.2 N 0.0 25.1 766.3
10:00 11.8 68.1 1016.0 5.0 N 16.6 NNW 0.0 24.9 776.3
10:05 11.9 68.4 1015.9 5.1 NNW 13.8 N 0.0 25.0 785.8
10:10 12.3 67.2 1016.0 3.1 NNW 9.9 N 0.0 25.1 792.7
10:15 12.5 66.8 1016.0 4.9 NNW 18.4 N 0.0 24.8 801.0
10:20 12.5 66.9 1016.0 7.8 NNW 15.5 NNE 0.0 24.0 809.0
10:25 12.6 66.0 1016.0 6.9 WNW 18.0 WNW 0.0 23.7 815.0
10:30 12.2 66.0 1016.0 6.3 NW 13.4 N 0.0 23.2 821.0
10:35 12.5 64.9 1015.9 6.6 NNW 16.2 NW 0.0 23.2 829.0
10:40 12.7 64.3 1015.9 7.1 NNW 14.8 WNW 0.0 23.1 835.0
10:45 12.7 64.0 1015.9 4.5 NNW 12.4 NNW 0.0 22.9 841.0
10:50 12.8 63.8 1015.8 5.8 WSW 14.1 WSW 0.0 23.0 845.0
10:55 13.3 61.8 1015.9 4.2 WNW 13.1 W 0.0 22.6 850.0
11:00 12.6 62.5 1015.8 6.1 W 13.8 W 0.0 22.0 854.0
11:05 13.0 62.6 1015.8 6.5 WNW 16.9 WNW 0.0 21.9 857.0
11:10 12.8 62.4 1015.8 8.9 W 19.4 WSW 0.0 21.1 862.0
11:15 13.2 61.5 1015.8 6.0 W 16.6 WNW 0.0 21.4 863.0
11:20 13.1 60.9 1015.7 7.5 WNW 14.8 WNW 0.0 21.1 866.0
11:25 13.7 61.7 1015.7 3.7 N 11.6 NNW 0.0 21.3 868.0
11:30 13.9 59.2 1015.6 9.4 NNW 24.7 N 0.0 20.9 869.0
11:35 13.9 59.5 1015.5 4.3 NNW 12.7 N 0.0 20.7 870.0
11:40 14.2 58.9 1015.5 5.3 N 14.5 N 0.0 20.4 870.0
11:45 14.6 58.0 1015.5 3.6 N 12.0 NNW 0.0 20.3 870.0
11:50 14.6 57.3 1015.4 7.2 NNW 14.5 NNW 0.0 19.7 871.0
11:55 14.3 57.4 1015.3 5.2 NW 12.0 W 0.0 19.7 872.0
12:00 14.6 57.9 1015.2 6.8 WSW 16.9 WNW 0.0 19.7 869.0
12:05 14.9 55.8 1015.1 7.3 NW 15.2 WNW 0.0 19.3 869.0
12:10 15.1 56.8 1015.1 4.7 W 9.9 WSW 0.0 19.5 867.0
12:15 15.7 54.8 1015.1 4.4 NW 18.0 WSW 0.0 19.8 865.0
12:20 15.2 54.0 1015.1 11.4 W 23.3 WNW 0.0 18.8 863.0
12:25 14.9 55.2 1015.1 11.0 WSW 18.7 W 0.0 18.3 838.0
12:30 14.7 55.9 1015.1 7.3 NW 14.5 W 0.0 17.9 796.6
12:35 15.3 55.4 1015.1 7.1 WSW 23.6 SW 0.0 18.4 854.0
12:40 15.5 54.2 1015.1 6.1 NW 16.6 WSW 0.0 18.2 849.0
12:45 16.3 54.1 1015.0 4.0 WNW 12.7 SSW 0.0 18.6 845.0
12:50 16.2 51.5 1015.0 13.6 W 22.6 W 0.0 17.7 842.0
12:55 15.6 53.2 1014.9 7.9 WSW 22.2 SW 0.0 17.5 837.0
13:00 16.2 53.4 1014.9 6.5 S 16.6 SSW 0.0 18.2 830.0
13:05 17.1 52.0 1014.8 7.6 E 23.3 W 0.0 18.2 825.0
13:10 16.6 51.2 1014.8 10.1 WSW 18.0 W 0.0 17.4 819.0
13:15 16.4 51.2 1014.8 14.4 WSW 21.9 SW 0.0 16.7 812.0
13:20 16.3 50.9 1014.8 9.9 W 21.5 WNW 0.0 16.5 805.0
13:25 16.5 50.6 1014.6 10.9 S 24.7 S 0.0 16.7 797.7
13:30 16.4 49.5 1014.6 12.1 W 27.5 W 0.0 16.3 791.0
13:35 16.3 50.8 1014.5 7.5 WSW 15.5 SW 0.0 16.5 782.6
13:40 16.9 49.6 1014.5 7.0 WSW 15.9 WNW 0.0 16.4 775.5
13:45 17.0 48.1 1014.4 16.0 W 32.1 WNW 0.0 16.1 765.9
13:50 16.3 48.6 1014.3 10.6 W 23.3 W 0.0 15.4 755.5
13:55 16.8 48.1 1014.3 13.3 WSW 22.9 W 0.0 15.9 746.3
14:00 16.6 48.4 1014.2 14.4 WSW 27.9 WSW 0.0 15.4 736.0
14:05 16.7 53.4 1014.2 10.1 S 20.1 SSW 0.0 15.9 723.7
14:10 16.8 54.2 1014.1 11.7 SSW 19.8 SSE 0.0 16.0 711.4
14:15 16.2 55.5 1014.1 12.6 SSW 31.4 S 0.0 15.6 701.1
14:20 16.3 56.3 1014.1 10.3 SSE 20.1 SSE 0.0 16.0 690.7
14:25 16.5 55.2 1014.0 9.0 SSW 18.0 S 0.0 16.4 681.4
14:30 16.3 55.2 1013.9 15.0 S 26.5 SE 0.0 15.7 668.6
14:35 15.8 56.8 1013.8 16.3 S 27.5 SSW 0.0 15.1 579.9
14:40 15.7 57.0 1013.7 14.1 S 29.3 SSE 0.0 14.6 462.1
14:45 15.0 58.7 1013.8 13.2 SSE 25.4 S 0.0 14.9 627.6
14:50 15.2 59.5 1013.8 11.0 S 21.5 SSE 0.0 15.4 621.8
14:55 15.3 59.0 1013.7 13.8 SSW 21.5 SSW 0.0 15.2 613.1
15:00 15.1 59.5 1013.7 15.5 SSE 28.2 SSW 0.0 15.3 598.2
15:05 14.7 60.6 1013.7 16.2 S 27.5 SSW 0.0 15.1 585.0
15:10 14.3 61.5 1013.7 12.8 SSE 23.3 S 0.0 15.0 569.5
15:15 14.3 62.0 1013.6 15.0 SSE 28.9 SSE 0.0 15.4 553.3
15:20 14.3 62.0 1013.6 13.7 S 26.1 S 0.0 15.0 539.7
15:25 14.1 61.9 1013.5 16.8 S 26.8 SSE 0.0 14.9 527.0
15:30 13.9 62.8 1013.5 16.8 S 29.6 SSW 0.0 14.9 512.4
15:35 13.7 63.5 1013.5 17.3 S 26.1 S 0.0 14.7 497.8
15:40 13.4 64.1 1013.4 16.5 S 26.5 SSW 0.0 15.0 484.4
15:45 13.3 64.4 1013.4 16.4 S 26.8 SSW 0.0 14.8 469.2
15:50 13.5 64.2 1013.4 12.2 SSE 26.1 SE 0.0 15.1 454.5
15:55 13.4 63.8 1013.4 17.1 SSE 27.5 SSE 0.0 15.0 438.8
16:00 13.0 64.6 1013.3 19.7 S 26.8 S 0.0 14.7 423.2
16:05 12.8 65.1 1013.4 18.7 S 27.9 S 0.0 14.4 408.2
16:10 12.6 65.4 1013.3 20.1 S 33.9 S 0.0 14.2 392.8
16:15 12.4 66.1 1013.4 17.0 S 26.8 SSE 0.0 14.3 377.3
16:20 12.5 65.5 1013.4 19.0 SSE 31.4 SSE 0.0 14.5 362.7
16:25 12.3 66.4 1013.4 15.9 S 28.2 S 0.0 14.5 346.5
16:30 12.1 66.9 1013.4 22.0 S 32.1 SSE 0.0 14.4 329.7
16:35 11.8 68.3 1013.3 18.8 S 29.3 SSW 0.0 14.5 315.4
16:40 11.8 68.6 1013.3 18.4 S 28.9 SSE 0.0 14.7 300.3
16:45 11.7 68.9 1013.3 19.4 S 31.8 S 0.0 14.5 243.6
16:50 11.7 69.6 1013.4 17.3 S 30.7 S 0.0 14.7 215.4
16:55 11.5 70.8 1013.3 19.3 SSE 34.9 SSE 0.0 14.8 252.6
17:00 11.2 72.5 1013.4 19.4 S 31.8 S 0.0 14.8 237.5
17:05 11.0 74.7 1013.4 21.2 S 34.2 SSE 0.0 14.8 222.8
17:10 10.7 76.5 1013.5 20.4 SSE 33.9 S 0.0 15.0 211.6
17:15 10.7 78.5 1013.5 18.1 SSE 32.1 SSE 0.0 15.4 204.0
17:20 10.6 79.5 1013.4 17.4 SSE 31.4 S 0.0 15.9 224.8
17:25 10.5 81.0 1013.4 18.7 SSE 29.3 SSE 0.0 16.1 173.0
17:30 10.4 81.9 1013.5 16.2 S 29.6 S 0.0 16.2 118.3
17:35 10.3 83.3 1013.5 18.7 S 26.5 SSE 0.0 16.3 117.1
17:40 10.1 84.3 1013.5 18.0 S 27.9 S 0.0 16.6 78.4
17:45 10.0 85.3 1013.5 20.2 SSE 31.4 S 0.0 16.9 67.8
17:50 9.9 86.2 1013.5 17.8 SE 31.1 SE 0.0 17.2 45.1
17:55 9.7 86.8 1013.7 17.6 S 26.1 SSE 0.0 17.7 71.6
Máxima 17.5 88.2 1018.4 22.0 S 34.9 SSE 0.0 33.0 872.0
Mínima 5.2 48.1 1013.3 14.2
Total 0.0